createdAt,value
2023-05-10T00:00:23.707Z,97790.28
2023-05-10T00:02:50.556Z,97798.25
2023-05-10T00:05:17.715Z,97794.63
2023-05-10T00:07:47.794Z,97784.25
2023-05-10T00:10:14.536Z,97780.63
2023-05-10T00:12:41.479Z,97781.94
2023-05-10T00:15:10.872Z,97789.50
2023-05-10T00:17:37.640Z,97775.53
2023-05-10T00:20:05.924Z,97770.84
2023-05-10T00:22:33.507Z,97767.00
2023-05-10T00:25:00.624Z,97765.25
2023-05-10T00:27:27.310Z,97762.09
2023-05-10T00:29:54.152Z,97772.47
2023-05-10T00:32:20.822Z,97765.59
2023-05-10T00:34:47.664Z,97769.56
2023-05-10T00:37:14.666Z,97766.16
2023-05-10T00:39:41.245Z,97744.69
2023-05-10T00:42:07.854Z,97770.09
2023-05-10T00:44:34.956Z,97764.84
2023-05-10T00:47:01.786Z,97777.41
2023-05-10T00:49:29.228Z,97771.34
2023-05-10T00:51:56.391Z,97772.03
2023-05-10T00:54:23.154Z,97780.53
2023-05-10T00:56:50.425Z,97783.66
2023-05-10T00:59:18.884Z,97780.38
2023-05-10T01:01:49.082Z,97777.56
2023-05-10T01:04:16.831Z,97777.34
2023-05-10T01:06:44.522Z,97771.66
2023-05-10T01:09:12.722Z,97781.88
2023-05-10T01:11:40.557Z,97774.09
2023-05-10T01:14:07.970Z,97770.81
2023-05-10T01:16:39.452Z,97771.16
2023-05-10T01:19:27.822Z,97771.84
2023-05-10T01:22:07.725Z,97764.84
2023-05-10T01:24:43.554Z,97773.69
2023-05-10T01:27:21.145Z,97763.66
2023-05-10T01:30:14.745Z,97764.91
2023-05-10T01:33:16.415Z,97763.38
2023-05-10T01:35:49.457Z,97764.28
2023-05-10T01:38:48.484Z,97760.72
2023-05-10T01:41:18.173Z,97762.34
2023-05-10T01:44:04.619Z,97755.09
2023-05-10T01:46:40.306Z,97758.38
2023-05-10T01:49:17.541Z,97765.78
2023-05-10T01:51:50.395Z,97752.66
2023-05-10T01:54:20.438Z,97759.38
2023-05-10T01:56:51.828Z,97752.84
2023-05-10T01:59:20.623Z,97749.81
2023-05-10T02:01:49.717Z,97752.72
2023-05-10T02:04:18.852Z,97748.25
2023-05-10T02:06:49.015Z,97755.22
2023-05-10T02:09:16.804Z,97745.44
2023-05-10T02:11:45.302Z,97738.31
2023-05-10T02:14:13.210Z,97747.38
2023-05-10T02:16:41.544Z,97747.38
2023-05-10T02:19:10.068Z,97745.16
2023-05-10T02:21:38.268Z,97749.06
2023-05-10T02:24:06.342Z,97749.75
2023-05-10T02:26:35.285Z,97752.19
2023-05-10T02:29:04.481Z,97737.72
2023-05-10T02:31:36.562Z,97748.13
2023-05-10T02:34:04.546Z,97748.13
2023-05-10T02:36:32.933Z,97750.63
2023-05-10T02:39:02.946Z,97743.72
2023-05-10T02:41:33.294Z,97722.56
2023-05-10T02:44:02.211Z,97734.75
2023-05-10T02:46:29.187Z,97730.06
2023-05-10T02:48:56.053Z,97725.38
2023-05-10T02:51:26.820Z,97735.25
2023-05-10T02:53:55.187Z,97747.13
2023-05-10T02:56:29.756Z,97743.06
2023-05-10T02:58:56.908Z,97747.78
2023-05-10T03:01:23.798Z,97740.06
2023-05-10T03:03:50.455Z,97739.84
2023-05-10T03:06:17.705Z,97741.97
2023-05-10T03:08:45.689Z,97733.78
2023-05-10T03:11:22.258Z,97738.53
2023-05-10T03:14:08.868Z,97743.44
2023-05-10T03:16:48.133Z,97736.06
2023-05-10T03:19:25.888Z,97730.38
2023-05-10T03:21:54.851Z,97739.59
2023-05-10T03:24:24.235Z,97737.34
2023-05-10T03:26:52.857Z,97736.16
2023-05-10T03:29:21.125Z,97718.81
2023-05-10T03:31:47.906Z,97738.44
2023-05-10T03:34:14.556Z,97738.22
2023-05-10T03:36:41.241Z,97739.25
2023-05-10T03:39:07.961Z,97744.16
2023-05-10T03:41:34.608Z,97736.16
2023-05-10T03:44:01.424Z,97738.22
2023-05-10T03:46:28.409Z,97729.78
2023-05-10T03:48:55.015Z,97728.72
2023-05-10T03:51:21.732Z,97734.69
2023-05-10T03:53:48.657Z,97726.28
2023-05-10T03:56:15.287Z,97737.94
2023-05-10T03:58:42.040Z,97719.53
2023-05-10T04:01:08.852Z,97718.84
2023-05-10T04:03:37.574Z,97726.00
2023-05-10T04:06:05.164Z,97716.56
2023-05-10T04:08:32.596Z,97724.53
2023-05-10T04:11:10.112Z,97710.78
2023-05-10T04:13:36.967Z,97727.50
2023-05-10T04:16:03.830Z,97734.72
2023-05-10T04:18:31.041Z,97714.97
2023-05-10T04:20:57.812Z,97712.72
2023-05-10T04:23:24.401Z,97725.38
2023-05-10T04:25:51.014Z,97724.94
2023-05-10T04:28:17.900Z,97729.41
2023-05-10T04:30:44.480Z,97738.97
2023-05-10T04:33:11.103Z,97723.16
2023-05-10T04:35:37.954Z,97733.34
2023-05-10T04:38:04.540Z,97729.25
2023-05-10T04:40:31.364Z,97725.06
2023-05-10T04:42:58.033Z,97727.47
2023-05-10T04:45:24.660Z,97726.81
2023-05-10T04:47:51.551Z,97726.94
2023-05-10T04:50:18.720Z,97716.25
2023-05-10T04:52:46.022Z,97727.22
2023-05-10T04:55:13.195Z,97731.31
2023-05-10T04:57:39.933Z,97723.06
2023-05-10T05:00:07.266Z,97726.72
2023-05-10T05:02:34.071Z,97715.41
2023-05-10T05:05:00.829Z,97721.50
2023-05-10T05:07:27.510Z,97718.06
2023-05-10T05:09:54.168Z,97730.09
2023-05-10T05:12:20.884Z,97728.13
2023-05-10T05:14:47.513Z,97725.13
2023-05-10T05:17:14.290Z,97723.75
2023-05-10T05:19:41.163Z,97719.13
2023-05-10T05:22:09.177Z,97710.63
2023-05-10T05:24:37.999Z,97722.19
2023-05-10T05:27:07.857Z,97713.69
2023-05-10T05:29:34.732Z,97721.97
2023-05-10T05:32:02.446Z,97717.44
2023-05-10T05:34:29.489Z,97707.69
2023-05-10T05:36:56.443Z,97719.56
2023-05-10T05:39:23.622Z,97706.88
2023-05-10T05:41:50.597Z,97710.94
2023-05-10T05:44:17.204Z,97710.72
2023-05-10T05:46:43.887Z,97707.03
2023-05-10T05:49:10.894Z,97713.09
2023-05-10T05:51:37.730Z,97711.41
2023-05-10T05:54:05.587Z,97723.59
2023-05-10T05:56:32.524Z,97720.38
2023-05-10T05:58:59.178Z,97712.03
2023-05-10T06:01:25.982Z,97708.44
2023-05-10T06:03:53.408Z,97714.00
2023-05-10T06:06:20.432Z,97704.06
2023-05-10T06:08:47.121Z,97710.63
2023-05-10T06:11:13.808Z,97697.63
2023-05-10T06:13:40.480Z,97702.84
2023-05-10T06:16:07.500Z,97694.44
2023-05-10T06:18:34.647Z,97699.91
2023-05-10T06:21:03.006Z,97699.41
2023-05-10T06:23:30.218Z,97699.13
2023-05-10T06:25:56.862Z,97695.34
2023-05-10T06:28:23.532Z,97688.72
2023-05-10T06:30:50.523Z,97688.88
2023-05-10T06:33:17.160Z,97697.16
2023-05-10T06:35:43.777Z,97687.50
2023-05-10T06:38:10.563Z,97692.44
2023-05-10T06:40:37.161Z,97691.38
2023-05-10T06:43:03.796Z,97693.50
2023-05-10T06:45:30.821Z,97695.91
2023-05-10T06:47:57.421Z,97697.13
2023-05-10T06:50:24.264Z,97690.50
2023-05-10T06:52:52.950Z,97675.78
2023-05-10T06:55:20.208Z,97675.00
2023-05-10T06:57:47.002Z,97677.97
2023-05-10T07:00:14.511Z,97682.31
2023-05-10T07:02:41.364Z,97671.44
2023-05-10T07:05:08.451Z,97664.69
2023-05-10T07:07:35.765Z,97667.03
2023-05-10T07:10:02.757Z,97669.78
2023-05-10T07:12:29.469Z,97667.88
2023-05-10T07:14:56.311Z,97661.81
2023-05-10T07:17:23.006Z,97650.88
2023-05-10T07:19:49.969Z,97667.44
2023-05-10T07:22:17.936Z,97659.25
2023-05-10T07:24:44.689Z,97655.19
2023-05-10T07:27:11.279Z,97655.13
2023-05-10T07:29:38.673Z,97671.59
2023-05-10T07:32:07.899Z,97666.78
2023-05-10T07:34:35.016Z,97657.78
2023-05-10T07:37:02.751Z,97666.84
2023-05-10T07:39:29.555Z,97669.81
2023-05-10T07:41:56.831Z,97664.72
2023-05-10T07:44:23.915Z,97663.56
2023-05-10T07:46:50.721Z,97657.41
2023-05-10T07:49:17.662Z,97657.22
2023-05-10T07:51:44.624Z,97657.25
2023-05-10T07:54:11.298Z,97657.06
2023-05-10T07:56:37.964Z,97661.16
2023-05-10T07:59:10.672Z,97654.81
2023-05-10T08:01:38.613Z,97660.72
2023-05-10T08:04:05.342Z,97661.50
2023-05-10T08:06:32.302Z,97663.59
2023-05-10T08:08:59.210Z,97662.19
2023-05-10T08:11:26.091Z,97653.41
2023-05-10T08:13:53.348Z,97643.31
2023-05-10T08:16:20.833Z,97633.53
2023-05-10T08:18:48.189Z,97647.94
2023-05-10T08:21:16.775Z,97640.03
2023-05-10T08:23:45.098Z,97657.59
2023-05-10T08:26:12.150Z,97655.50
2023-05-10T08:28:39.237Z,97644.84
2023-05-10T08:31:06.842Z,97641.00
2023-05-10T08:33:33.617Z,97658.88
2023-05-10T08:36:00.581Z,97653.56
2023-05-10T08:38:27.190Z,97647.56
2023-05-10T08:40:58.069Z,97652.13
2023-05-10T08:43:28.273Z,97657.25
2023-05-10T08:45:55.680Z,97651.16
2023-05-10T08:48:25.263Z,97639.09
2023-05-10T08:50:56.037Z,97638.41
2023-05-10T08:53:26.940Z,97643.72
2023-05-10T08:55:54.028Z,97635.53
2023-05-10T08:58:21.670Z,97636.66
2023-05-10T09:00:54.379Z,97638.75
2023-05-10T09:03:21.266Z,97642.28
2023-05-10T09:05:48.834Z,97626.78
2023-05-10T09:08:17.393Z,97635.84
2023-05-10T09:10:49.124Z,97641.47
2023-05-10T09:13:16.938Z,97629.56
2023-05-10T09:15:48.309Z,97638.56
2023-05-10T09:18:15.069Z,97632.09
2023-05-10T09:20:42.351Z,97631.41
2023-05-10T09:23:09.242Z,97619.66
2023-05-10T09:25:36.272Z,97625.94
2023-05-10T09:28:03.389Z,97630.97
2023-05-10T09:30:31.914Z,97620.22
2023-05-10T09:33:00.344Z,97621.50
2023-05-10T09:35:30.185Z,97627.53
2023-05-10T09:38:01.861Z,97619.28
2023-05-10T09:40:30.645Z,97618.03
2023-05-10T09:43:02.896Z,97613.41
2023-05-10T09:45:32.750Z,97608.28
2023-05-10T09:48:00.767Z,97606.84
2023-05-10T09:50:28.031Z,97597.59
2023-05-10T09:52:56.056Z,97604.78
2023-05-10T09:55:47.762Z,97599.13
2023-05-10T09:58:15.489Z,97588.53
2023-05-10T10:00:48.637Z,97593.91
2023-05-10T10:03:21.268Z,97597.25
2023-05-10T10:05:49.252Z,97594.28
2023-05-10T10:08:16.732Z,97583.38
2023-05-10T10:10:46.136Z,97592.88
2023-05-10T10:13:13.257Z,97588.25
2023-05-10T10:15:40.436Z,97587.25
2023-05-10T10:18:09.199Z,97581.44
2023-05-10T10:20:38.708Z,97584.06
2023-05-10T10:23:08.783Z,97595.69
2023-05-10T10:25:35.905Z,97575.91
2023-05-10T10:28:31.168Z,97579.34
2023-05-10T10:31:12.625Z,97574.56
2023-05-10T10:34:01.097Z,97579.72
2023-05-10T10:36:31.670Z,97572.56
2023-05-10T10:39:02.421Z,97568.50
2023-05-10T10:41:33.716Z,97584.09
2023-05-10T10:44:31.952Z,97578.63
2023-05-10T10:47:09.670Z,97574.69
2023-05-10T10:49:45.582Z,97574.91
2023-05-10T10:52:30.306Z,97580.38
2023-05-10T10:55:16.366Z,97570.16
2023-05-10T10:57:53.023Z,97558.63
2023-05-10T11:00:26.888Z,97560.63
2023-05-10T11:02:55.439Z,97563.19
2023-05-10T11:05:34.350Z,97557.63
2023-05-10T11:08:02.320Z,97561.75
2023-05-10T11:10:29.782Z,97565.00
2023-05-10T11:13:03.629Z,97567.69
2023-05-10T11:15:35.706Z,97545.22
2023-05-10T11:18:22.619Z,97553.44
2023-05-10T11:21:00.739Z,97561.47
2023-05-10T11:23:52.321Z,97552.84
2023-05-10T11:26:19.752Z,97547.50
2023-05-10T11:28:48.433Z,97540.31
2023-05-10T11:31:16.586Z,97544.72
2023-05-10T11:33:47.474Z,97548.91
2023-05-10T11:36:17.124Z,97539.09
2023-05-10T11:38:44.125Z,97532.78
2023-05-10T11:41:12.498Z,97532.00
2023-05-10T11:43:43.291Z,97532.94
2023-05-10T11:46:12.638Z,97524.94
2023-05-10T11:48:43.744Z,97529.47
2023-05-10T11:51:11.733Z,97520.53
2023-05-10T11:53:39.440Z,97527.22
2023-05-10T11:56:12.663Z,97539.47
2023-05-10T11:58:40.600Z,97530.41
2023-05-10T12:01:09.070Z,97530.94
2023-05-10T15:12:31.980Z,97426.13
2023-05-10T15:14:58.767Z,97433.38
2023-05-10T15:17:25.471Z,97428.50
2023-05-10T15:19:52.132Z,97403.41
2023-05-10T15:22:19.082Z,97437.66
2023-05-10T15:24:45.688Z,97432.03
2023-05-10T15:27:12.521Z,97426.13
2023-05-10T15:29:39.297Z,97437.06
2023-05-10T15:32:05.965Z,97422.63
2023-05-10T15:34:34.864Z,97442.78
2023-05-10T15:37:02.399Z,97435.22
2023-05-10T15:39:29.003Z,97432.81
2023-05-10T15:41:55.653Z,97419.31
2023-05-10T15:44:23.305Z,97426.22
2023-05-10T15:46:50.731Z,97421.91
2023-05-10T15:49:18.376Z,97431.22
2023-05-10T15:51:45.282Z,97430.28
2023-05-10T15:54:11.934Z,97434.78
2023-05-10T15:56:38.577Z,97440.41
2023-05-10T15:59:06.267Z,97433.34
2023-05-10T16:01:33.241Z,97428.81
2023-05-10T16:04:00.168Z,97429.31
2023-05-10T16:06:27.237Z,97426.06
2023-05-10T16:08:54.692Z,97421.41
2023-05-10T16:11:21.632Z,97422.84
2023-05-10T16:13:48.545Z,97427.00
2023-05-10T16:16:15.185Z,97423.44
2023-05-10T16:18:41.980Z,97425.03
2023-05-10T16:21:08.600Z,97412.97
2023-05-10T16:23:35.216Z,97403.59
2023-05-10T16:26:02.270Z,97416.09
2023-05-10T16:28:29.070Z,97421.28
2023-05-10T16:30:55.694Z,97437.47
2023-05-10T16:33:22.467Z,97435.72
2023-05-10T16:35:49.383Z,97423.75
2023-05-10T16:38:15.999Z,97432.75
2023-05-10T16:40:42.674Z,97427.09
2023-05-10T16:43:10.596Z,97427.22
2023-05-10T16:45:37.427Z,97433.63
2023-05-10T16:48:04.145Z,97442.41
2023-05-10T16:50:30.970Z,97443.38
2023-05-10T16:52:57.580Z,97452.50
2023-05-10T16:55:26.375Z,97452.44
2023-05-10T16:57:53.177Z,97452.75
2023-05-10T17:00:20.966Z,97454.00
2023-05-10T17:02:47.688Z,97444.91
2023-05-10T17:05:14.536Z,97452.91
2023-05-10T17:07:41.332Z,97447.28
2023-05-10T17:10:08.563Z,97428.84
2023-05-10T17:12:36.835Z,97451.50
2023-05-10T17:15:03.958Z,97451.41
2023-05-10T17:17:31.611Z,97462.63
2023-05-10T17:19:59.004Z,97453.56
2023-05-10T17:22:25.812Z,97457.03
2023-05-10T17:24:52.664Z,97451.78
2023-05-10T17:27:19.296Z,97468.78
2023-05-10T17:29:46.050Z,97476.03
2023-05-10T17:32:12.695Z,97464.97
2023-05-10T17:34:39.610Z,97473.84
2023-05-10T17:37:06.354Z,97457.06
2023-05-10T17:39:34.299Z,97476.44
2023-05-10T17:42:00.958Z,97479.88
2023-05-10T17:44:27.668Z,97477.25
2023-05-10T17:46:54.679Z,97473.97
2023-05-10T17:49:21.326Z,97478.50
2023-05-10T17:51:51.182Z,97496.59
2023-05-10T17:54:18.103Z,97489.28
2023-05-10T17:56:44.953Z,97497.81
2023-05-10T17:59:11.623Z,97500.97
2023-05-10T18:01:40.319Z,97497.91
2023-05-10T18:04:07.995Z,97502.06
2023-05-10T18:06:38.362Z,97504.41
2023-05-10T18:09:07.392Z,97507.53
2023-05-10T18:11:36.296Z,97512.81
2023-05-10T18:14:03.018Z,97512.38
2023-05-10T18:16:29.687Z,97507.94
2023-05-10T18:18:56.881Z,97520.41
2023-05-10T18:21:23.687Z,97519.94
2023-05-10T18:23:50.346Z,97529.50
2023-05-10T18:26:18.442Z,97518.84
2023-05-10T18:28:45.185Z,97526.75
2023-05-10T18:31:12.701Z,97536.28
2023-05-10T18:33:39.732Z,97529.91
2023-05-10T18:36:06.955Z,97526.75
2023-05-10T18:38:33.745Z,97543.63
2023-05-10T18:41:00.460Z,97550.69
2023-05-10T18:43:27.124Z,97547.25
2023-05-10T18:45:53.728Z,97549.56
2023-05-10T18:48:20.360Z,97541.19
2023-05-10T18:50:46.941Z,97552.38
2023-05-10T18:53:14.099Z,97554.09
2023-05-10T18:55:41.076Z,97553.03
2023-05-10T18:58:07.661Z,97564.47
2023-05-10T19:00:34.295Z,97564.50
2023-05-10T19:03:01.049Z,97575.09
2023-05-10T19:05:30.305Z,97571.63
2023-05-10T19:07:57.091Z,97577.88
2023-05-10T19:10:24.076Z,97568.97
2023-05-10T19:12:50.825Z,97571.19
2023-05-10T19:15:19.274Z,97585.78
2023-05-10T19:17:47.758Z,97571.72
2023-05-10T19:20:16.427Z,97571.19
2023-05-10T19:22:58.099Z,97579.34
2023-05-10T19:25:30.150Z,97573.16
2023-05-10T19:27:59.576Z,97566.94
2023-05-10T19:30:26.840Z,97575.59
2023-05-10T19:32:53.700Z,97579.13
2023-05-10T19:35:20.525Z,97581.28
2023-05-10T19:37:47.426Z,97585.34
2023-05-10T19:40:16.030Z,97591.28
2023-05-10T19:42:42.860Z,97583.19
2023-05-10T19:45:10.100Z,97600.22
2023-05-10T19:47:37.638Z,97592.94
2023-05-10T19:50:04.936Z,97605.09
2023-05-10T19:52:31.609Z,97602.13
2023-05-10T19:54:58.601Z,97605.91
2023-05-10T19:57:25.255Z,97599.94
2023-05-10T19:59:51.925Z,97578.31
2023-05-10T20:02:18.669Z,97605.09
2023-05-10T20:04:45.355Z,97599.66
2023-05-10T20:07:12.648Z,97605.31
2023-05-10T20:09:39.314Z,97596.66
2023-05-10T20:12:05.949Z,97596.66
2023-05-10T20:14:32.627Z,97612.63
2023-05-10T20:16:59.453Z,97603.69
2023-05-10T20:19:26.488Z,97592.34
2023-05-10T20:21:55.988Z,97594.25
2023-05-10T20:24:22.822Z,97612.38
2023-05-10T20:26:49.388Z,97618.06
2023-05-10T20:29:16.129Z,97615.63
2023-05-10T20:31:42.955Z,97601.28
2023-05-10T20:34:09.524Z,97617.22
2023-05-10T20:36:36.140Z,97618.84
2023-05-10T20:39:03.197Z,97624.78
2023-05-10T20:41:29.786Z,97612.34
2023-05-10T20:43:56.448Z,97621.53
2023-05-10T20:46:23.666Z,97623.16
2023-05-10T20:48:50.244Z,97603.13
2023-05-10T20:51:17.978Z,97613.94
2023-05-10T20:53:44.829Z,97614.50
2023-05-10T20:56:11.425Z,97623.66
2023-05-10T20:58:38.042Z,97622.56
2023-05-10T21:01:04.996Z,97622.28
2023-05-10T21:03:31.627Z,97606.03
2023-05-10T21:05:58.193Z,97620.91
2023-05-10T21:08:24.863Z,97621.44
2023-05-10T21:10:51.511Z,97622.25
2023-05-10T21:13:18.128Z,97620.88
2023-05-10T21:15:44.965Z,97614.66
2023-05-10T21:18:11.672Z,97610.06
2023-05-10T21:20:38.486Z,97611.13
2023-05-10T21:23:05.286Z,97614.91
2023-05-10T21:25:31.945Z,97604.06
2023-05-10T21:27:58.557Z,97613.81
2023-05-10T21:30:25.497Z,97625.69
2023-05-10T21:32:52.192Z,97617.28
2023-05-10T21:35:18.769Z,97623.47
2023-05-10T21:37:45.626Z,97623.75
2023-05-10T21:40:12.900Z,97611.88
2023-05-10T21:42:39.616Z,97617.00
2023-05-10T21:45:07.507Z,97629.72
2023-05-10T21:47:34.346Z,97615.94
2023-05-10T21:50:00.999Z,97614.00
2023-05-10T21:52:27.859Z,97616.16
2023-05-10T21:54:54.473Z,97622.94
2023-05-10T21:57:21.585Z,97625.06
2023-05-10T21:59:48.373Z,97617.25
2023-05-10T22:02:15.005Z,97638.84
2023-05-10T22:04:41.606Z,97633.16
2023-05-10T22:07:08.482Z,97633.44
2023-05-10T22:09:35.134Z,97635.84
2023-05-10T22:12:01.758Z,97626.34
2023-05-10T22:14:28.565Z,97626.88
2023-05-10T22:16:55.234Z,97627.41
2023-05-10T22:19:21.841Z,97633.03
2023-05-10T22:21:49.009Z,97621.38
2023-05-10T22:24:15.720Z,97628.66
2023-05-10T22:26:42.403Z,97633.75
2023-05-10T22:29:09.067Z,97628.31
2023-05-10T22:31:36.234Z,97621.75
2023-05-10T22:34:02.983Z,97623.03
2023-05-10T22:36:30.422Z,97633.25
2023-05-10T22:38:57.102Z,97633.75
2023-05-10T22:41:23.721Z,97639.63
2023-05-10T22:43:50.519Z,97647.97
2023-05-10T22:46:17.141Z,97642.78
2023-05-10T22:48:43.895Z,97640.03
2023-05-10T22:51:10.739Z,97625.69
2023-05-10T22:53:37.404Z,97628.06
2023-05-10T22:56:04.222Z,97634.50
2023-05-10T22:58:35.493Z,97630.19
2023-05-10T23:01:02.098Z,97624.69
2023-05-10T23:03:29.762Z,97630.84
2023-05-10T23:05:56.806Z,97635.44
2023-05-10T23:08:23.480Z,97614.25
2023-05-10T23:10:50.035Z,97630.72
2023-05-10T23:13:17.090Z,97622.81
2023-05-10T23:15:43.711Z,97636.03
2023-05-10T23:18:10.432Z,97632.72
2023-05-10T23:20:37.470Z,97633.44
2023-05-10T23:23:04.117Z,97635.75
2023-05-10T23:25:30.894Z,97633.75
2023-05-10T23:27:57.850Z,97625.59
2023-05-10T23:30:24.490Z,97627.44
2023-05-10T23:32:51.229Z,97633.88
2023-05-10T23:35:18.076Z,97618.38
2023-05-10T23:37:44.738Z,97631.56
2023-05-10T23:40:11.699Z,97630.16
2023-05-10T23:42:38.806Z,97639.00
2023-05-10T23:45:05.844Z,97608.31
2023-05-10T23:47:32.786Z,97633.22
2023-05-10T23:49:59.488Z,97630.97
2023-05-10T23:52:26.211Z,97630.88
2023-05-10T23:54:53.573Z,97629.75
2023-05-10T23:57:20.778Z,97636.69
2023-05-10T23:59:47.484Z,97632.28
